createdAt,value
2019-03-16T00:02:18.118Z,7.03
2019-03-16T00:04:44.889Z,7.70
2019-03-16T00:07:10.968Z,7.07
2019-03-16T00:09:36.980Z,8.90
2019-03-16T00:12:03.069Z,7.77
2019-03-16T00:14:29.345Z,9.27
2019-03-16T00:16:55.360Z,7.87
2019-03-16T00:19:21.391Z,11.47
2019-03-16T00:21:47.420Z,9.07
2019-03-16T00:24:13.440Z,10.10
2019-03-16T00:26:39.461Z,9.40
2019-03-16T00:29:05.487Z,12.40
2019-03-16T00:31:31.505Z,10.47
2019-03-16T00:33:57.535Z,8.50
2019-03-16T00:36:23.555Z,10.60
2019-03-16T00:38:49.587Z,6.70
2019-03-16T00:41:15.623Z,12.03
2019-03-16T00:43:41.656Z,7.63
2019-03-16T00:46:07.684Z,14.03
2019-03-16T00:48:33.729Z,10.67
2019-03-16T00:50:59.735Z,16.27
2019-03-16T00:53:25.762Z,11.90
2019-03-16T00:55:52.043Z,6.63
2019-03-16T00:58:18.073Z,9.83
2019-03-16T01:00:44.092Z,16.03
2019-03-16T01:03:10.135Z,12.03
2019-03-16T01:05:36.156Z,7.00
2019-03-16T01:08:02.193Z,5.77
2019-03-16T01:10:28.204Z,11.70
2019-03-16T01:12:54.243Z,4.87
2019-03-16T01:15:20.253Z,11.30
2019-03-16T01:17:46.255Z,5.17
2019-03-16T01:20:12.587Z,11.87
2019-03-16T01:22:38.594Z,13.67
2019-03-16T01:25:05.333Z,6.23
2019-03-16T01:27:31.348Z,8.93
2019-03-16T01:29:57.375Z,8.57
2019-03-16T01:32:23.388Z,4.13
2019-03-16T01:34:49.415Z,10.67
2019-03-16T01:37:15.435Z,10.47
2019-03-16T01:39:41.460Z,6.33
2019-03-16T01:42:07.475Z,3.13
2019-03-16T01:44:33.494Z,6.77
2019-03-16T01:46:59.507Z,11.17
2019-03-16T01:49:25.538Z,9.10
2019-03-16T01:51:51.563Z,9.27
2019-03-16T01:54:17.591Z,6.93
2019-03-16T01:56:43.619Z,9.73
2019-03-16T01:59:09.651Z,8.97
2019-03-16T02:01:35.655Z,11.87
2019-03-16T02:04:01.691Z,4.97
2019-03-16T02:06:27.726Z,7.80
2019-03-16T02:08:53.739Z,3.87
2019-03-16T02:11:19.751Z,3.40
2019-03-16T02:13:45.780Z,7.20
2019-03-16T02:16:11.817Z,11.40
2019-03-16T02:18:37.902Z,11.83
2019-03-16T02:21:03.936Z,5.20
2019-03-16T02:23:29.943Z,3.43
2019-03-16T02:25:55.967Z,9.43
2019-03-16T02:28:21.979Z,7.03
2019-03-16T02:30:48.003Z,6.53
2019-03-16T02:33:14.035Z,7.77
2019-03-16T02:35:40.158Z,8.07
2019-03-16T02:38:06.157Z,10.43
2019-03-16T02:40:32.280Z,7.30
2019-03-16T02:42:58.293Z,7.83
2019-03-16T02:45:24.328Z,9.10
2019-03-16T02:47:50.353Z,5.30
2019-03-16T02:50:16.604Z,5.53
2019-03-16T02:52:42.624Z,6.00
2019-03-16T02:55:08.751Z,9.50
2019-03-16T02:57:34.872Z,4.37
2019-03-16T03:00:00.906Z,2.33
2019-03-16T03:02:26.920Z,8.80
2019-03-16T03:04:52.952Z,8.27
2019-03-16T03:07:18.984Z,8.18
2019-03-16T03:09:45.021Z,9.27
2019-03-16T03:12:11.028Z,8.57
2019-03-16T03:14:37.063Z,10.27
2019-03-16T03:17:03.075Z,14.20
2019-03-16T03:19:29.108Z,10.43
2019-03-16T03:21:55.125Z,10.83
2019-03-16T03:24:21.257Z,10.97
2019-03-16T03:26:47.275Z,13.27
2019-03-16T03:29:13.313Z,7.00
2019-03-16T03:31:39.546Z,11.00
2019-03-16T03:34:05.800Z,11.37
2019-03-16T03:36:31.877Z,4.87
2019-03-16T03:38:57.887Z,14.53
2019-03-16T03:41:23.915Z,15.13
2019-03-16T03:43:49.956Z,15.20
2019-03-16T03:46:16.068Z,15.77
2019-03-16T03:48:42.289Z,11.50
2019-03-16T03:51:08.321Z,15.97
2019-03-16T03:53:34.333Z,12.40
2019-03-16T03:56:01.019Z,20.53
2019-03-16T03:58:27.029Z,18.83
2019-03-16T04:00:53.064Z,17.87
2019-03-16T04:03:19.076Z,17.90
2019-03-16T04:05:45.111Z,14.83
2019-03-16T04:08:11.128Z,10.93
2019-03-16T04:10:37.151Z,24.23
2019-03-16T04:13:03.161Z,12.87
2019-03-16T04:15:29.193Z,8.17
2019-03-16T04:17:55.214Z,9.97
2019-03-16T04:20:21.232Z,14.57
2019-03-16T04:22:47.256Z,18.57
2019-03-16T04:25:13.294Z,16.53
2019-03-16T04:27:39.298Z,5.53
2019-03-16T04:30:07.437Z,16.60
2019-03-16T04:32:33.455Z,11.37
2019-03-16T04:34:59.492Z,13.60
2019-03-16T04:37:25.509Z,9.07
2019-03-16T04:39:51.540Z,10.33
2019-03-16T04:42:17.559Z,15.93
2019-03-16T04:44:43.579Z,10.00
2019-03-16T04:47:09.591Z,13.23
2019-03-16T04:49:35.619Z,12.13
2019-03-16T04:52:01.635Z,7.97
2019-03-16T04:54:27.664Z,15.87
2019-03-16T04:56:53.695Z,18.20
2019-03-16T04:59:19.709Z,13.13
2019-03-16T05:01:45.740Z,13.20
2019-03-16T05:04:11.755Z,14.33
2019-03-16T05:06:37.783Z,13.73
2019-03-16T05:09:04.904Z,10.73
2019-03-16T05:11:30.951Z,13.57
2019-03-16T05:13:56.954Z,11.90
2019-03-16T05:16:22.987Z,13.67
2019-03-16T05:18:49.000Z,12.30
2019-03-16T05:21:15.027Z,4.77
2019-03-16T05:23:41.039Z,5.77
2019-03-16T05:26:07.077Z,6.37
2019-03-16T05:28:33.091Z,16.83
2019-03-16T05:30:59.124Z,10.97
2019-03-16T05:33:25.136Z,9.87
2019-03-16T05:35:51.174Z,7.03
2019-03-16T05:38:17.251Z,13.50
2019-03-16T05:40:43.283Z,13.50
2019-03-16T05:43:09.288Z,11.33
2019-03-16T05:45:35.324Z,10.97
2019-03-16T05:48:01.331Z,8.80
2019-03-16T05:50:27.368Z,8.93
2019-03-16T05:52:54.229Z,6.57
2019-03-16T05:55:20.340Z,11.57
2019-03-16T05:57:46.364Z,10.80
2019-03-16T06:00:15.307Z,8.47
2019-03-16T06:02:41.315Z,10.40
2019-03-16T06:05:10.781Z,10.33
2019-03-16T06:07:35.771Z,10.97
2019-03-16T06:10:03.312Z,3.73
2019-03-16T06:12:29.346Z,10.00
2019-03-16T06:14:55.363Z,10.13
2019-03-16T06:17:21.410Z,7.27
2019-03-16T06:19:47.441Z,4.90
2019-03-16T06:22:13.472Z,6.50
2019-03-16T06:24:39.489Z,9.00
2019-03-16T06:27:05.519Z,6.57
2019-03-16T06:29:31.532Z,8.47
2019-03-16T06:31:57.564Z,9.00
2019-03-16T06:34:23.580Z,3.87
2019-03-16T06:36:49.618Z,3.30
2019-03-16T06:39:15.639Z,4.57
2019-03-16T06:41:43.478Z,6.00
2019-03-16T06:44:09.668Z,5.47
2019-03-16T06:46:35.711Z,10.13
2019-03-16T06:49:01.797Z,5.23
2019-03-16T06:51:27.835Z,8.43
2019-03-16T06:53:53.938Z,4.17
2019-03-16T06:56:20.052Z,3.60
2019-03-16T06:58:46.077Z,4.53
2019-03-16T07:01:12.244Z,5.43
2019-03-16T07:03:38.268Z,6.07
2019-03-16T07:06:04.283Z,5.27
2019-03-16T07:08:30.447Z,8.03
2019-03-16T07:10:56.471Z,6.77
2019-03-16T07:13:22.504Z,5.83
2019-03-16T07:15:48.573Z,3.43
2019-03-16T07:18:14.587Z,4.47
2019-03-16T07:20:40.643Z,4.80
2019-03-16T07:23:06.676Z,5.00
2019-03-16T07:25:32.711Z,4.33
2019-03-16T07:27:58.741Z,5.80
2019-03-16T07:30:24.830Z,3.77
2019-03-16T07:32:50.895Z,7.30
2019-03-16T07:35:16.947Z,2.57
2019-03-16T07:37:42.959Z,6.97
2019-03-16T07:40:12.582Z,2.53
2019-03-16T07:42:38.612Z,9.10
2019-03-16T07:45:09.036Z,3.00
2019-03-16T07:47:35.315Z,4.50
2019-03-16T07:50:01.448Z,3.07
2019-03-16T07:52:27.467Z,1.83
2019-03-16T07:54:53.807Z,1.67
2019-03-16T07:57:40.026Z,1.87
2019-03-16T08:00:03.100Z,4.47
2019-03-16T08:02:29.124Z,1.13
2019-03-16T08:04:55.158Z,1.77
2019-03-16T08:07:21.165Z,2.43
2019-03-16T08:09:47.200Z,2.37
2019-03-16T08:12:13.217Z,2.47
2019-03-16T08:14:39.247Z,2.10
2019-03-16T08:17:05.255Z,5.27
2019-03-16T08:19:31.288Z,3.43
2019-03-16T08:21:57.312Z,1.87
2019-03-16T08:24:23.339Z,1.70
2019-03-16T08:26:49.351Z,2.33
2019-03-16T08:29:15.384Z,3.90
2019-03-16T08:31:41.404Z,3.00
2019-03-16T08:34:07.448Z,2.73
2019-03-16T08:36:33.483Z,3.77
2019-03-16T08:38:59.495Z,1.00
2019-03-16T08:41:25.529Z,7.13
2019-03-16T08:43:51.543Z,3.93
2019-03-16T08:46:17.612Z,1.53
2019-03-16T08:48:43.624Z,1.63
2019-03-16T08:51:09.659Z,3.17
2019-03-16T08:53:35.693Z,4.13
2019-03-16T08:56:01.714Z,2.00
2019-03-16T08:58:27.789Z,2.43
2019-03-16T09:00:53.815Z,1.47
2019-03-16T09:03:19.880Z,4.00
2019-03-16T09:05:45.985Z,3.23
2019-03-16T09:08:11.990Z,1.03
2019-03-16T09:10:38.123Z,3.33
2019-03-16T09:13:04.140Z,4.87
2019-03-16T09:15:30.188Z,1.00
2019-03-16T09:17:56.208Z,0.60
2019-03-16T09:20:22.281Z,2.80
2019-03-16T09:22:48.288Z,2.47
2019-03-16T09:25:14.320Z,1.97
2019-03-16T09:27:40.335Z,1.37
2019-03-16T09:30:11.815Z,3.90
2019-03-16T09:32:37.939Z,2.12
2019-03-16T09:35:04.165Z,1.37
2019-03-16T09:37:30.177Z,1.30
2019-03-16T09:39:56.207Z,0.30
2019-03-16T09:42:22.220Z,0.90
2019-03-16T09:44:48.231Z,0.97
2019-03-16T09:47:14.367Z,0.43
2019-03-16T09:49:40.388Z,1.13
2019-03-16T09:52:06.440Z,0.33
2019-03-16T09:54:32.459Z,0.73
2019-03-16T09:57:01.446Z,1.87
2019-03-16T09:59:26.422Z,1.33
2019-03-16T10:01:52.488Z,1.07
2019-03-16T10:04:18.539Z,0.20
2019-03-16T10:06:44.567Z,0.30
2019-03-16T10:09:10.588Z,0.50
2019-03-16T10:11:36.619Z,0.30
2019-03-16T10:14:02.741Z,1.43
2019-03-16T10:16:29.099Z,0.73
2019-03-16T10:18:55.115Z,0.77
2019-03-16T10:21:21.151Z,1.03
2019-03-16T10:23:47.159Z,0.50
2019-03-16T10:26:13.203Z,2.30
2019-03-16T10:28:43.722Z,0.50
2019-03-16T10:31:07.160Z,0.73
2019-03-16T10:33:33.175Z,0.40
2019-03-16T10:35:59.210Z,0.40
2019-03-16T10:38:25.264Z,1.57
2019-03-16T10:40:51.352Z,0.67
2019-03-16T10:43:17.364Z,0.53
2019-03-16T10:45:43.399Z,0.30
2019-03-16T10:48:09.431Z,0.90
2019-03-16T10:50:35.455Z,0.60
2019-03-16T10:53:01.472Z,0.37
2019-03-16T10:55:27.543Z,0.23
2019-03-16T10:57:53.591Z,1.90
2019-03-16T11:00:19.606Z,1.30
2019-03-16T11:05:30.703Z,1.60
2019-03-16T11:07:56.734Z,0.60
2019-03-16T11:10:22.831Z,0.90
2019-03-16T11:12:48.861Z,0.50
2019-03-16T11:15:14.875Z,0.60
2019-03-16T11:17:40.927Z,0.53
2019-03-16T11:20:09.040Z,0.70
2019-03-16T11:22:35.082Z,0.70
2019-03-16T11:25:01.095Z,1.50
2019-03-16T11:27:27.135Z,0.60
2019-03-16T11:29:53.143Z,1.50
2019-03-16T11:32:19.188Z,1.17
2019-03-16T11:34:45.202Z,1.00
2019-03-16T11:37:11.340Z,1.03
2019-03-16T11:39:37.378Z,0.80
2019-03-16T11:42:03.431Z,1.37
2019-03-16T11:44:29.442Z,1.07
2019-03-16T11:46:55.547Z,3.00
2019-03-16T11:49:21.591Z,0.90
2019-03-16T11:51:47.631Z,0.70
2019-03-16T11:54:13.668Z,0.83
2019-03-16T11:56:39.735Z,4.13
2019-03-16T11:59:05.755Z,1.50
2019-03-16T12:01:31.790Z,1.70
2019-03-16T12:03:57.827Z,1.20
2019-03-16T12:06:23.903Z,1.53
2019-03-16T12:08:49.912Z,1.07
2019-03-16T12:11:15.922Z,2.07
2019-03-16T12:13:43.938Z,2.87
2019-03-16T12:16:09.871Z,1.83
2019-03-16T12:18:35.904Z,1.57
2019-03-16T12:21:01.911Z,1.17
2019-03-16T12:23:27.947Z,1.03
2019-03-16T12:25:54.003Z,2.83
2019-03-16T12:28:20.023Z,0.83
2019-03-16T12:30:46.036Z,0.47
2019-03-16T12:33:12.074Z,0.93
2019-03-16T12:35:38.089Z,2.60
2019-03-16T12:38:04.127Z,1.43
2019-03-16T12:40:30.144Z,0.90
2019-03-16T12:42:56.239Z,2.00
2019-03-16T12:45:22.331Z,0.90
2019-03-16T12:47:48.363Z,0.77
2019-03-16T12:50:14.375Z,1.60
2019-03-16T12:52:40.575Z,0.87
2019-03-16T12:55:08.387Z,0.80
2019-03-16T12:57:34.423Z,1.57
2019-03-16T13:00:00.543Z,2.53
2019-03-16T13:02:26.583Z,1.43
2019-03-16T13:04:52.607Z,2.80
2019-03-16T13:07:18.643Z,2.53
2019-03-16T13:09:44.655Z,0.80
2019-03-16T13:12:10.705Z,1.47
2019-03-16T13:14:36.707Z,0.50
2019-03-16T13:17:02.726Z,2.00
2019-03-16T13:19:28.765Z,2.10
2019-03-16T13:21:54.779Z,1.50
2019-03-16T13:24:20.838Z,1.43
2019-03-16T13:26:46.843Z,2.90
2019-03-16T13:29:12.897Z,1.87
2019-03-16T13:31:38.895Z,0.80
2019-03-16T13:34:04.931Z,1.00
2019-03-16T13:36:30.973Z,1.47
2019-03-16T13:38:57.112Z,1.73
2019-03-16T13:41:23.144Z,1.47
2019-03-16T13:43:49.202Z,1.33
2019-03-16T13:46:15.261Z,1.17
2019-03-16T13:48:41.300Z,1.90
2019-03-16T13:51:07.315Z,0.60
2019-03-16T13:53:33.362Z,1.10
2019-03-16T13:55:59.775Z,2.70
2019-03-16T13:58:25.824Z,1.17
2019-03-16T14:00:51.876Z,3.20
2019-03-16T14:05:05.352Z,2.00
2019-03-16T14:07:31.771Z,1.90
2019-03-16T14:09:57.814Z,4.83
2019-03-16T14:12:23.823Z,0.60
2019-03-16T14:14:50.167Z,1.97
2019-03-16T14:17:16.175Z,1.90
2019-03-16T14:19:42.216Z,1.80
2019-03-16T14:22:08.317Z,1.67
2019-03-16T14:24:34.365Z,2.07
2019-03-16T14:27:00.882Z,1.70
2019-03-16T14:29:26.915Z,0.70
2019-03-16T14:31:52.933Z,1.25
2019-03-16T14:34:18.973Z,0.80
2019-03-16T14:36:45.083Z,4.57
2019-03-16T14:39:11.124Z,2.43
2019-03-16T14:41:37.208Z,2.60
2019-03-16T14:44:03.596Z,0.90
2019-03-16T14:46:29.631Z,1.63
2019-03-16T14:48:55.671Z,1.40
2019-03-16T14:51:24.600Z,1.33
2019-03-16T14:53:49.635Z,4.80
2019-03-16T14:56:15.651Z,0.77
2019-03-16T14:58:41.691Z,2.77
2019-03-16T15:01:07.703Z,1.10
2019-03-16T15:03:33.748Z,3.47
2019-03-16T15:05:59.875Z,0.80
2019-03-16T15:08:25.949Z,0.93
2019-03-16T15:10:52.067Z,1.23
2019-03-16T15:13:18.087Z,1.73
2019-03-16T15:15:44.123Z,0.93
2019-03-16T15:18:10.139Z,3.77
2019-03-16T15:20:36.172Z,1.60
2019-03-16T15:23:02.283Z,0.55
2019-03-16T15:28:00.239Z,1.20
2019-03-16T15:30:26.284Z,2.83
2019-03-16T15:32:52.291Z,2.03
2019-03-16T15:35:18.324Z,0.77
2019-03-16T15:37:44.339Z,0.83
2019-03-16T15:40:14.068Z,0.87
2019-03-16T15:42:40.128Z,0.80
2019-03-16T15:45:12.393Z,1.03
2019-03-16T15:47:38.477Z,2.07
2019-03-16T15:50:06.823Z,2.23
2019-03-16T15:52:32.836Z,0.53
2019-03-16T15:54:58.873Z,0.50
2019-03-16T15:57:24.883Z,0.40
2019-03-16T15:59:51.004Z,2.50
2019-03-16T16:02:17.023Z,0.73
2019-03-16T16:04:43.075Z,1.43
2019-03-16T16:07:09.092Z,6.23
2019-03-16T16:09:35.128Z,2.10
2019-03-16T16:12:01.143Z,0.67
2019-03-16T16:14:27.183Z,1.73
2019-03-16T16:16:53.804Z,1.10
2019-03-16T16:19:21.807Z,1.27
2019-03-16T16:21:48.135Z,2.17
2019-03-16T16:24:14.176Z,0.83
2019-03-16T16:26:40.231Z,0.40
2019-03-16T16:29:06.307Z,0.60
2019-03-16T16:31:32.460Z,1.07
2019-03-16T16:33:58.476Z,0.90
2019-03-16T16:36:24.520Z,1.07
2019-03-16T16:38:50.531Z,0.90
2019-03-16T16:41:16.644Z,0.90
2019-03-16T16:43:42.656Z,0.70
2019-03-16T16:46:08.697Z,1.20
2019-03-16T16:48:34.723Z,0.70
2019-03-16T16:51:01.783Z,2.73
2019-03-16T16:53:27.783Z,0.80
2019-03-16T16:55:54.020Z,5.20
2019-03-16T16:58:20.073Z,1.83
2019-03-16T17:03:18.788Z,1.47
2019-03-16T17:05:44.871Z,0.53
2019-03-16T17:08:10.884Z,0.43
2019-03-16T17:10:36.916Z,0.83
2019-03-16T17:13:02.932Z,1.10
2019-03-16T17:15:28.971Z,9.17
2019-03-16T17:17:54.990Z,2.10
2019-03-16T17:20:21.392Z,0.70
2019-03-16T17:22:47.808Z,0.83
2019-03-16T17:25:14.322Z,0.57
2019-03-16T17:27:40.799Z,2.03
2019-03-16T17:30:17.179Z,1.03
2019-03-16T17:32:43.572Z,3.03
2019-03-16T17:35:10.449Z,1.07
2019-03-16T17:37:36.846Z,1.33
2019-03-16T17:40:04.919Z,1.37
2019-03-16T17:42:31.331Z,1.83
2019-03-16T17:44:57.732Z,2.93
2019-03-16T17:47:23.778Z,1.80
2019-03-16T17:49:49.787Z,1.10
2019-03-16T17:52:15.824Z,5.20
2019-03-16T17:54:41.839Z,2.30
2019-03-16T17:57:07.882Z,2.43
2019-03-16T17:59:33.990Z,1.53
2019-03-16T18:02:00.036Z,4.93
2019-03-16T18:04:27.815Z,1.67
2019-03-16T18:06:53.997Z,2.37
2019-03-16T18:09:20.067Z,1.43
2019-03-16T18:11:46.176Z,1.83
2019-03-16T18:14:12.200Z,1.83
2019-03-16T18:16:38.265Z,1.23
2019-03-16T18:19:04.280Z,3.07
2019-03-16T18:21:30.344Z,1.90
2019-03-16T18:23:56.484Z,1.80
2019-03-16T18:26:22.500Z,3.53
2019-03-16T18:28:48.667Z,1.43
2019-03-16T18:31:15.542Z,4.27
2019-03-16T18:33:41.660Z,1.60
2019-03-16T18:36:07.675Z,4.53
2019-03-16T18:38:33.688Z,10.43
2019-03-16T18:40:59.825Z,42.03
2019-03-16T18:43:25.835Z,7.87
2019-03-16T18:45:51.882Z,3.63
2019-03-16T18:48:17.899Z,3.87
2019-03-16T18:50:43.939Z,4.47
2019-03-16T18:53:09.956Z,2.87
2019-03-16T18:55:35.995Z,7.37
2019-03-16T18:58:02.311Z,3.33
2019-03-16T19:00:28.435Z,2.80
2019-03-16T19:02:54.565Z,4.43
2019-03-16T19:05:20.600Z,7.17
2019-03-16T19:07:46.613Z,6.70
2019-03-16T19:10:15.837Z,4.57
2019-03-16T19:12:42.447Z,4.87
2019-03-16T19:15:11.323Z,4.30
2019-03-16T19:17:37.339Z,3.13
2019-03-16T19:20:07.095Z,6.33
2019-03-16T19:22:33.140Z,4.43
2019-03-16T19:24:59.175Z,7.33
2019-03-16T19:27:25.189Z,5.57
2019-03-16T19:29:51.243Z,5.37
2019-03-16T19:32:17.410Z,6.30
2019-03-16T19:34:43.588Z,10.53
2019-03-16T19:37:09.598Z,3.53
2019-03-16T19:39:35.660Z,3.57
2019-03-16T19:42:01.699Z,3.07
2019-03-16T19:44:27.740Z,5.03
2019-03-16T19:46:53.753Z,2.47
2019-03-16T19:49:19.789Z,2.17
2019-03-16T19:51:45.828Z,6.23
2019-03-16T19:54:11.848Z,2.50
2019-03-16T19:56:37.891Z,4.53
2019-03-16T19:59:03.899Z,2.30
2019-03-16T20:01:29.935Z,5.43
2019-03-16T20:04:15.828Z,5.13
2019-03-16T20:06:41.872Z,6.83
2019-03-16T20:09:07.879Z,4.37
2019-03-16T20:11:33.939Z,2.47
2019-03-16T20:13:59.961Z,3.37
2019-03-16T20:16:25.997Z,4.20
2019-03-16T20:18:52.011Z,4.00
2019-03-16T20:21:18.055Z,4.67
2019-03-16T20:23:44.070Z,3.43
2019-03-16T20:26:10.125Z,3.83
2019-03-16T20:28:36.166Z,3.93
2019-03-16T20:31:02.281Z,7.07
2019-03-16T20:33:28.343Z,3.40
2019-03-16T20:35:54.390Z,5.07
2019-03-16T20:38:20.408Z,3.33
2019-03-16T20:40:46.736Z,3.63
2019-03-16T20:43:14.387Z,5.87
2019-03-16T20:45:40.430Z,7.57
2019-03-16T20:48:06.564Z,8.93
2019-03-16T20:50:32.612Z,8.20
2019-03-16T20:52:58.628Z,9.30
2019-03-16T20:55:24.689Z,8.50
2019-03-16T20:57:50.784Z,8.53
2019-03-16T21:00:17.395Z,7.83
2019-03-16T21:02:43.535Z,8.20
2019-03-16T21:05:09.746Z,4.40
2019-03-16T21:07:35.887Z,3.27
2019-03-16T21:10:02.100Z,3.77
2019-03-16T21:12:28.141Z,2.80
2019-03-16T21:14:54.156Z,3.63
2019-03-16T21:17:20.196Z,3.60
2019-03-16T21:19:46.206Z,3.77
2019-03-16T21:22:12.243Z,4.30
2019-03-16T21:24:38.256Z,2.33
2019-03-16T21:27:04.292Z,4.63
2019-03-16T21:29:30.364Z,3.17
2019-03-16T21:31:56.444Z,4.63
2019-03-16T21:34:22.460Z,4.13
2019-03-16T21:36:48.487Z,2.93
2019-03-16T21:39:16.862Z,2.57
2019-03-16T21:41:44.368Z,2.80
2019-03-16T21:44:10.357Z,3.13
2019-03-16T21:46:36.387Z,2.90
2019-03-16T21:49:02.724Z,4.23
2019-03-16T21:51:28.771Z,2.80
2019-03-16T21:53:54.783Z,5.60
2019-03-16T21:56:22.723Z,3.40
2019-03-16T21:58:48.756Z,3.17
2019-03-16T22:01:14.792Z,5.33
2019-03-16T22:03:41.915Z,4.60
2019-03-16T22:06:08.349Z,3.57
2019-03-16T22:08:34.359Z,2.60
2019-03-16T22:11:01.189Z,2.97
2019-03-16T22:13:27.204Z,3.97
2019-03-16T22:15:53.235Z,5.40
2019-03-16T22:18:19.276Z,3.17
2019-03-16T22:20:45.319Z,4.43
2019-03-16T22:23:11.336Z,3.40
2019-03-16T22:25:37.396Z,4.57
2019-03-16T22:28:03.489Z,3.83
2019-03-16T22:30:29.499Z,3.20
2019-03-16T22:32:55.531Z,3.60
2019-03-16T22:35:21.543Z,3.70
2019-03-16T22:37:47.572Z,4.13
2019-03-16T22:40:13.886Z,4.90
2019-03-16T22:42:39.943Z,4.50
2019-03-16T22:45:08.235Z,2.47
2019-03-16T22:47:34.283Z,3.53
2019-03-16T22:50:00.391Z,3.50
2019-03-16T22:52:26.432Z,4.92
2019-03-16T22:54:52.447Z,2.60
2019-03-16T22:57:18.483Z,8.83
2019-03-16T22:59:44.495Z,2.03
2019-03-16T23:02:10.527Z,3.93
2019-03-16T23:04:36.844Z,2.30
2019-03-16T23:07:02.880Z,2.30
2019-03-16T23:09:28.888Z,2.47
2019-03-16T23:11:54.920Z,1.77
2019-03-16T23:14:20.932Z,2.00
2019-03-16T23:16:46.949Z,2.70
2019-03-16T23:19:13.000Z,2.40
2019-03-16T23:21:39.016Z,2.23
2019-03-16T23:24:05.130Z,3.60
2019-03-16T23:26:38.231Z,3.43
2019-03-16T23:28:59.095Z,3.33
2019-03-16T23:31:25.103Z,3.30
2019-03-16T23:33:51.139Z,4.70
2019-03-16T23:36:17.147Z,3.43
2019-03-16T23:38:43.159Z,3.37
2019-03-16T23:41:09.191Z,3.37
2019-03-16T23:43:35.220Z,2.67
2019-03-16T23:46:01.237Z,3.80
2019-03-16T23:48:27.283Z,4.17
2019-03-16T23:50:53.695Z,2.73
2019-03-16T23:53:19.724Z,3.00
2019-03-16T23:55:45.735Z,3.00
2019-03-16T23:58:11.768Z,3.93
